createdAt,value
2023-05-19T00:03:40.511Z,75.87
2023-05-19T00:08:39.381Z,75.36
2023-05-19T00:13:38.335Z,75.46
2023-05-19T00:18:37.317Z,75.39
2023-05-19T00:23:36.255Z,76.21
2023-05-19T00:28:35.205Z,77.04
2023-05-19T00:33:34.141Z,76.46
2023-05-19T00:38:33.096Z,76.67
2023-05-19T00:43:32.089Z,77.94
2023-05-19T00:48:30.992Z,77.67
2023-05-19T00:53:29.972Z,77.01
2023-05-19T00:58:28.903Z,77.56
2023-05-19T01:03:27.932Z,76.81
2023-05-19T01:08:26.815Z,76.32
2023-05-19T01:13:25.777Z,76.94
2023-05-19T01:18:24.682Z,78.74
2023-05-19T01:23:23.660Z,78.74
2023-05-19T01:28:22.593Z,79.36
2023-05-19T01:33:21.601Z,78.53
2023-05-19T01:38:20.500Z,78.94
2023-05-19T01:43:19.425Z,78.84
2023-05-19T01:48:18.385Z,79.77
2023-05-19T01:53:17.355Z,78.63
2023-05-19T01:58:16.361Z,78.53
2023-05-19T02:03:15.276Z,79.94
2023-05-19T02:08:14.202Z,80.25
2023-05-19T02:13:13.150Z,79.83
2023-05-19T02:18:12.080Z,79.42
2023-05-19T02:23:11.096Z,80.25
2023-05-19T02:28:10.001Z,79.52
2023-05-19T02:33:08.959Z,79.49
2023-05-19T02:38:07.895Z,80.21
2023-05-19T02:43:06.865Z,79.59
2023-05-19T02:48:05.802Z,79.90
2023-05-19T02:53:04.708Z,79.22
2023-05-19T02:58:03.654Z,80.56
2023-05-19T03:03:03.129Z,79.52
2023-05-19T03:08:01.558Z,80.56
2023-05-19T03:13:00.495Z,80.56
2023-05-19T03:17:59.476Z,79.42
2023-05-19T03:22:58.416Z,80.56
2023-05-19T03:27:57.370Z,79.94
2023-05-19T03:32:56.439Z,79.94
2023-05-19T03:37:55.240Z,79.97
2023-05-19T03:42:54.200Z,80.80
2023-05-19T03:47:53.228Z,82.15
2023-05-19T03:52:52.106Z,81.67
2023-05-19T03:57:51.090Z,82.66
2023-05-19T04:02:50.117Z,82.90
2023-05-19T04:07:48.925Z,82.66
2023-05-19T04:12:47.909Z,83.07
2023-05-19T04:17:46.890Z,83.18
2023-05-19T04:22:45.789Z,83.45
2023-05-19T04:27:44.757Z,83.76
2023-05-19T04:32:43.687Z,83.83
2023-05-19T04:37:42.658Z,83.31
2023-05-19T04:42:41.576Z,84.51
2023-05-19T04:47:40.546Z,84.36
2023-05-19T04:52:39.459Z,84.64
2023-05-19T04:57:38.414Z,83.87
2023-05-19T05:02:37.473Z,83.36
2023-05-19T05:07:36.317Z,82.77
2023-05-19T05:12:35.252Z,81.15
2023-05-19T05:17:34.223Z,79.05
2023-05-19T05:22:33.138Z,79.36
2023-05-19T05:27:32.128Z,78.85
2023-05-19T05:32:31.069Z,78.03
2023-05-19T05:37:29.990Z,78.85
2023-05-19T05:42:29.821Z,78.64
2023-05-19T05:47:27.930Z,79.67
2023-05-19T05:52:26.844Z,77.85
2023-05-19T05:57:25.832Z,76.68
2023-05-19T06:02:24.990Z,76.28
2023-05-19T06:07:23.716Z,74.66
2023-05-19T06:12:22.688Z,74.22
2023-05-19T06:17:21.598Z,73.36
2023-05-19T06:22:20.564Z,72.31
2023-05-19T06:27:19.533Z,72.20
2023-05-19T06:32:18.446Z,72.48
2023-05-19T06:37:17.386Z,72.28
2023-05-19T06:42:16.370Z,72.78
2023-05-19T06:47:15.364Z,72.75
2023-05-19T06:52:14.269Z,73.57
2023-05-19T06:57:13.181Z,72.75
2023-05-19T07:02:12.132Z,72.41
2023-05-19T07:07:11.102Z,71.15
2023-05-19T07:12:10.035Z,71.22
2023-05-19T07:17:08.968Z,71.36
2023-05-19T07:22:07.900Z,68.71
2023-05-19T07:27:06.855Z,66.61
2023-05-19T07:32:05.849Z,65.46
2023-05-19T07:37:04.766Z,66.11
2023-05-19T07:42:03.700Z,63.10
2023-05-19T07:47:02.651Z,61.47
2023-05-19T07:52:01.584Z,61.72
2023-05-19T07:57:00.576Z,58.31
2023-05-19T08:01:59.512Z,59.00
2023-05-19T08:06:58.436Z,57.75
2023-05-19T08:11:57.410Z,56.44
2023-05-19T08:16:56.340Z,55.70
2023-05-19T08:21:55.289Z,54.76
2023-05-19T08:26:54.238Z,52.01
2023-05-19T08:31:53.384Z,49.55
2023-05-19T08:36:52.130Z,50.26
2023-05-19T08:41:51.086Z,49.55
2023-05-19T08:46:50.084Z,48.42
2023-05-19T08:51:48.972Z,48.90
2023-05-19T08:56:47.970Z,49.43
2023-05-19T09:01:46.881Z,48.50
2023-05-19T09:06:45.835Z,49.01
2023-05-19T09:11:44.768Z,49.45
2023-05-19T09:16:43.738Z,50.26
2023-05-19T09:21:44.031Z,48.93
2023-05-19T09:26:41.600Z,49.55
2023-05-19T09:31:40.576Z,50.16
2023-05-19T09:36:39.503Z,48.93
2023-05-19T09:41:38.476Z,47.08
2023-05-19T09:46:37.547Z,45.57
2023-05-19T09:51:36.353Z,44.15
2023-05-19T09:56:35.296Z,42.84
2023-05-19T10:01:34.272Z,44.11
2023-05-19T10:06:33.212Z,43.52
2023-05-19T10:11:32.165Z,44.03
2023-05-19T10:16:31.151Z,43.77
2023-05-19T10:21:30.042Z,42.64
2023-05-19T10:26:28.970Z,43.65
2023-05-19T10:31:28.027Z,43.00
2023-05-19T10:36:26.902Z,42.92
2023-05-19T10:41:25.845Z,43.02
2023-05-19T10:46:24.832Z,43.74
2023-05-19T10:51:23.714Z,43.69
2023-05-19T10:56:22.676Z,44.21
2023-05-19T11:01:21.644Z,44.11
2023-05-19T11:06:20.595Z,44.71
2023-05-19T11:11:19.519Z,45.70
2023-05-19T11:16:18.491Z,43.65
2023-05-19T11:21:17.422Z,44.17
2023-05-19T11:26:16.408Z,44.45
2023-05-19T11:31:15.403Z,44.37
2023-05-19T11:36:14.259Z,44.70
2023-05-19T11:41:13.201Z,44.90
2023-05-19T11:46:12.182Z,45.68
2023-05-19T11:51:11.109Z,43.12
2023-05-19T11:56:10.047Z,43.28
2023-05-19T12:01:08.997Z,42.07
2023-05-19T12:06:07.982Z,42.38
2023-05-19T12:11:06.900Z,42.64
2023-05-19T12:16:05.908Z,40.33
2023-05-19T12:21:04.840Z,39.74
2023-05-19T12:26:03.715Z,41.05
2023-05-19T12:31:02.711Z,40.55
2023-05-19T12:36:01.627Z,40.69
2023-05-19T12:41:00.577Z,41.39
2023-05-19T12:45:59.534Z,40.48
2023-05-19T12:50:58.536Z,40.28
2023-05-19T12:55:57.471Z,40.77
2023-05-19T13:00:56.439Z,41.67
2023-05-19T13:05:55.341Z,42.07
2023-05-19T13:10:54.255Z,41.97
2023-05-19T13:15:53.247Z,42.88
2023-05-19T13:20:52.184Z,40.97
2023-05-19T13:25:51.109Z,41.27
2023-05-19T13:30:50.124Z,41.29
2023-05-19T13:35:49.013Z,42.80
2023-05-19T13:40:47.956Z,41.99
2023-05-19T13:45:46.912Z,41.69
2023-05-19T13:50:45.846Z,42.80
2023-05-19T13:55:44.792Z,42.35
2023-05-19T14:00:43.751Z,40.75
2023-05-19T14:05:42.786Z,41.27
2023-05-19T14:10:41.630Z,41.49
2023-05-19T14:15:40.629Z,41.49
2023-05-19T14:20:39.577Z,41.77
2023-05-19T14:25:38.472Z,41.05
2023-05-19T14:30:37.424Z,42.15
2023-05-19T14:35:36.372Z,40.12
2023-05-19T14:40:35.451Z,40.02
